Weather History for Menominee, MI

Change the Weather History Date:

Wednesday, March 6, 2013

  Actual Average Record
Temperature  
Mean Temperature 28 °F -  
Max Temperature 33 °F 37 °F 57 °F (1974)
Min Temperature 24 °F 16 °F -13 °F (2014)
Degree Days  
Heating Degree Days 36    
Moisture  
Dew Point 24 °F    
Average Humidity 82    
Maximum Humidity 100    
Minimum Humidity 64    
Precipitation  
Precipitation 0.00 in - - ()
Sea Level Pressure  
Sea Level Pressure 30.23 in    
Wind  
Wind Speed 8 mph (North)    
Max Wind Speed 12 mph    
Max Gust Speed 16 mph    
Visibility 9 miles    
Events      
Averages and records for this station are not official NWS values.
T = Trace of Precipitation, MM = Missing Value Source: NWS Daily Summary

Daily Weather History Graph

Daily Weather History Graph

Search for Another Location

Airport:

Trip Planner

Search our weather history database for the weather conditions in past years. The results will help you decide how hot, cold, wet, or windy it might be!

Date:

Astronomy

Mar. 06, 2013 Rise Set
Actual Time 6:19 AM CST 5:45 PM CST
Civil Twilight 5:49 AM CST 6:14 PM CST
Nautical Twilight 5:15 AM CST 6:48 PM CST
Astronomical Twilight 4:41 AM CST 7:22 PM CST
Moon 2:39 AM CST (3/6) 12:15 PM CST (3/6)
Length of Visible Light 12h 24m
Length of Day
11h 25m
Waning Crescent, 29% of the Moon is Illuminated
Mar 6
Waning Crescent
Mar 11
New
Mar 19
First Quarter
Mar 27
Full
Apr 2
Last Quarter

Hourly Weather History & Observations

Time (CST) Temp. Windchill Dew Point Humidity Pressure Visibility Wind Dir Wind Speed Gust Speed Precip Events Conditions
12:15 AM 28.4 °F 19.7 °F 19.4 °F 69% 30.11 in 10.0 mi NNE 9.2 mph - N/A   Overcast
12:35 AM 28.4 °F 19.7 °F 19.4 °F 69% 30.12 in 10.0 mi North 9.2 mph - N/A   Overcast
12:55 AM 28.4 °F 19.7 °F 21.2 °F 74% 30.12 in 10.0 mi North 9.2 mph - N/A   Overcast
1:15 AM 28.4 °F 20.4 °F 21.2 °F 74% 30.13 in 10.0 mi North 8.1 mph - N/A   Overcast
1:35 AM 28.4 °F 18.5 °F 21.2 °F 74% 30.13 in 10.0 mi NNW 11.5 mph - N/A   Overcast
1:55 AM 28.4 °F 20.4 °F 21.2 °F 74% 30.14 in 10.0 mi North 8.1 mph - N/A   Overcast
2:15 AM 28.4 °F 19.7 °F 21.2 °F 74% 30.14 in 10.0 mi North 9.2 mph - N/A   Overcast
2:35 AM 28.4 °F 19.7 °F 21.2 °F 74% 30.15 in 10.0 mi North 9.2 mph - N/A   Overcast
2:55 AM 28.4 °F 18.5 °F 23.0 °F 80% 30.15 in 10.0 mi North 11.5 mph 16.1 mph N/A   Overcast
3:15 AM 28.4 °F 19.1 °F 24.8 °F 86% 30.16 in 10.0 mi North 10.4 mph - N/A   Overcast
3:35 AM 28.4 °F 19.7 °F 24.8 °F 86% 30.16 in 10.0 mi North 9.2 mph - N/A   Overcast
3:55 AM 28.4 °F 19.7 °F 23.0 °F 80% 30.17 in 10.0 mi North 9.2 mph - N/A   Overcast
4:15 AM 28.4 °F 19.1 °F 23.0 °F 80% 30.17 in 10.0 mi North 10.4 mph - N/A   Overcast
4:35 AM 28.4 °F 19.1 °F 23.0 °F 80% 30.19 in 10.0 mi NNW 10.4 mph - N/A   Overcast
4:55 AM 28.4 °F 19.1 °F 24.8 °F 86% 30.19 in 10.0 mi North 10.4 mph - N/A   Overcast
5:15 AM 28.4 °F 20.4 °F 24.8 °F 86% 30.19 in 10.0 mi North 8.1 mph - N/A   Overcast
5:35 AM 28.4 °F 21.2 °F 24.8 °F 86% 30.19 in 10.0 mi North 6.9 mph - N/A   Overcast
5:55 AM 28.4 °F 21.2 °F 24.8 °F 86% 30.19 in 10.0 mi North 6.9 mph - N/A   Overcast
6:15 AM 28.4 °F 22.2 °F 24.8 °F 86% 30.19 in 10.0 mi North 5.8 mph - N/A   Overcast
6:35 AM 26.6 °F 20.0 °F 24.8 °F 93% 30.19 in 10.0 mi North 5.8 mph - N/A   Overcast
6:55 AM 26.6 °F 19.1 °F 26.6 °F 100% 30.21 in 10.0 mi NNW 6.9 mph - N/A   Overcast
7:15 AM 28.4 °F 20.4 °F 26.6 °F 93% 30.22 in 10.0 mi NNW 8.1 mph - N/A   Overcast
7:35 AM 28.4 °F 20.4 °F 24.8 °F 86% 30.23 in 10.0 mi NNW 8.1 mph - N/A   Overcast
7:55 AM 28.4 °F 21.2 °F 24.8 °F 86% 30.23 in 10.0 mi North 6.9 mph - N/A   Overcast
8:15 AM 28.4 °F 21.2 °F 26.6 °F 93% 30.23 in 10.0 mi North 6.9 mph - N/A   Overcast
8:35 AM 30.2 °F 23.4 °F 26.6 °F 86% 30.23 in 10.0 mi North 6.9 mph - N/A   Overcast
8:55 AM 30.2 °F 23.4 °F 26.6 °F 86% 30.23 in 10.0 mi North 6.9 mph - N/A   Overcast
9:15 AM 30.2 °F 21.9 °F 26.6 °F 86% 30.23 in 10.0 mi NNE 9.2 mph - N/A   Overcast
9:35 AM 30.2 °F 22.6 °F 26.6 °F 86% 30.24 in 10.0 mi NNE 8.1 mph - N/A   Overcast
9:55 AM 30.2 °F 23.4 °F 26.6 °F 86% 30.25 in 9.0 mi North 6.9 mph - N/A   Overcast
10:15 AM 30.2 °F 21.9 °F 26.6 °F 86% 30.25 in 5.0 mi NNW 9.2 mph - N/A   Overcast
10:35 AM 30.2 °F 24.3 °F 26.6 °F 86% 30.25 in 10.0 mi NNW 5.8 mph - N/A   Overcast
10:55 AM 32.0 °F 25.6 °F 26.6 °F 80% 30.25 in 5.0 mi North 6.9 mph - N/A   Overcast
11:15 AM 32.0 °F 24.8 °F 26.6 °F 80% 30.25 in 4.0 mi North 8.1 mph - N/A   Overcast
11:35 AM 32.0 °F 24.2 °F 28.4 °F 87% 30.25 in 7.0 mi NNW 9.2 mph - N/A   Overcast
11:55 AM 30.2 °F 21.9 °F 26.6 °F 86% 30.25 in 7.0 mi NNW 9.2 mph - N/A   Overcast
12:15 PM 30.2 °F 21.3 °F 26.6 °F 86% 30.25 in 5.0 mi NNW 10.4 mph - N/A   Overcast
12:35 PM 30.2 °F 20.8 °F 26.6 °F 86% 30.24 in 7.0 mi North 11.5 mph - N/A   Overcast
12:55 PM 30.2 °F 22.6 °F 26.6 °F 86% 30.24 in 8.0 mi NNW 8.1 mph - N/A   Overcast
1:15 PM 30.2 °F 21.9 °F 24.8 °F 80% 30.24 in 10.0 mi NNW 9.2 mph - N/A   Overcast
1:35 PM 32.0 °F 23.6 °F 24.8 °F 75% 30.24 in 2.5 mi North 10.4 mph - N/A   Overcast
1:55 PM 32.0 °F 24.8 °F 26.6 °F 80% 30.23 in 3.0 mi NNW 8.1 mph - N/A   Overcast
2:15 PM 32.0 °F 23.0 °F 28.4 °F 87% 30.24 in 5.0 mi North 11.5 mph - N/A   Overcast
2:35 PM 32.0 °F 24.2 °F 24.8 °F 75% 30.24 in 9.0 mi North 9.2 mph - N/A   Overcast
2:55 PM 32.0 °F 24.2 °F 24.8 °F 75% 30.24 in 10.0 mi North 9.2 mph - N/A   Overcast
3:15 PM 33.8 °F 27.7 °F 24.8 °F 70% 30.24 in 10.0 mi North 6.9 mph - N/A   Overcast
3:35 PM 33.8 °F 26.4 °F 24.8 °F 70% 30.24 in 10.0 mi NNW 9.2 mph - N/A   Overcast
3:55 PM 33.8 °F 27.0 °F 23.0 °F 65% 30.25 in 10.0 mi North 8.1 mph - N/A   Overcast
4:15 PM 33.8 °F 27.7 °F 23.0 °F 65% 30.25 in 10.0 mi North 6.9 mph - N/A   Overcast
4:35 PM 33.8 °F 29.6 °F 23.0 °F 65% 30.25 in 10.0 mi NNE 4.6 mph - N/A   Overcast
4:55 PM 33.8 °F 29.6 °F 24.8 °F 70% 30.25 in 10.0 mi NE 4.6 mph - N/A   Overcast
5:15 PM 30.2 °F 23.4 °F 28.4 °F 93% 30.25 in 10.0 mi ESE 6.9 mph - N/A   Overcast
5:35 PM 30.2 °F 25.4 °F 28.4 °F 93% 30.26 in 10.0 mi ESE 4.6 mph - N/A   Overcast
5:55 PM 30.2 °F - 26.6 °F 86% 30.26 in 10.0 mi Calm Calm - N/A   Overcast
6:15 PM 30.2 °F - 26.6 °F 86% 30.27 in 10.0 mi Calm Calm - N/A   Overcast
6:35 PM 30.2 °F - 26.6 °F 86% 30.27 in 10.0 mi Calm Calm - N/A   Overcast
6:55 PM 28.4 °F 24.6 °F 26.6 °F 93% 30.27 in 10.0 mi ESE 3.5 mph - N/A   Overcast
7:15 PM 28.4 °F 24.6 °F 28.4 °F 100% 30.28 in 10.0 mi East 3.5 mph - N/A   Overcast
7:35 PM 28.4 °F 24.6 °F 26.6 °F 93% 30.29 in 10.0 mi East 3.5 mph - N/A   Overcast
7:55 PM 28.4 °F 23.3 °F 26.6 °F 93% 30.29 in 10.0 mi East 4.6 mph - N/A   Overcast
8:35 PM 28.4 °F 22.2 °F 26.6 °F 93% 30.29 in 9.0 mi East 5.8 mph - N/A   Overcast
8:55 PM 28.4 °F 23.3 °F 24.8 °F 86% 30.29 in 10.0 mi East 4.6 mph - N/A   Overcast
9:15 PM 26.6 °F 19.1 °F 26.6 °F 100% 30.29 in 10.0 mi ENE 6.9 mph - N/A   Overcast
9:35 PM 26.6 °F 19.1 °F 24.8 °F 93% 30.30 in 10.0 mi East 6.9 mph - N/A   Overcast
9:55 PM 26.6 °F - 24.8 °F 93% 30.30 in 10.0 mi Calm Calm - N/A   Overcast
10:15 PM 28.4 °F 22.2 °F 17.6 °F 64% 30.30 in 10.0 mi North 5.8 mph - N/A   Overcast
10:35 PM 28.4 °F 23.3 °F 17.6 °F 64% 30.30 in 10.0 mi NNE 4.6 mph - N/A   Overcast
10:55 PM 26.6 °F 21.2 °F 17.6 °F 69% 30.30 in 10.0 mi North 4.6 mph - N/A   Overcast
11:15 PM 26.6 °F 21.2 °F 17.6 °F 69% 30.30 in 10.0 mi North 4.6 mph - N/A   Scattered Clouds
11:35 PM 24.8 °F 17.9 °F 15.8 °F 69% 30.30 in 10.0 mi NNW 5.8 mph - N/A   Mostly Cloudy
11:55 PM 24.8 °F 17.9 °F 15.8 °F 69% 30.31 in 10.0 mi North 5.8 mph - N/A   Overcast